Hovedside
METAR-TAF:

METAR-TAF

Lufthavner :

Draugen, Norge

Draugenfeltet

breddegrad: 64-21-20N, lengdegrad: 007-47-30E, høyde over havet: 0 m

Gjeldene værobservasjon

Denne rapporten ble laget for 39 minutter siden, klokken 09:50 UTC
Vind 8 kt fra Nordvest
Temperatur 12°C
Luftfuktighet 76%
Trykk 993 hPa

METAR: ENDR 250950Z AUTO 31008KT 12/08 Q0993

Tid: 12:29 (10:29 UTC)


TAF: fraværende

Værobservasjoner og værvarsel for over 4000 flyplasser (METAR- og TAF-rapporter).

Tilgjengelige stasjoner er representert av de røde og gule prikkene på kartet.

Hold musepekeren over prikken for å se navnet på stasjonen.

Klikk så for å se værobservasjoner og -varsler.

For å forandre kartet kan du klikke på den grønne knappen med svart kryss for å zoome inn, på den grønne knappen med strek for å zoome ut, eller på de grønne pilene for å se tilstøtende kart.


METAR-TAF: